createdAt,value
2023-01-17T00:00:09.062Z,12.98
2023-01-17T00:02:54.725Z,13.18
2023-01-17T00:05:59.245Z,13.63
2023-01-17T00:09:03.527Z,13.52
2023-01-17T00:11:49.141Z,11.90
2023-01-17T00:14:34.709Z,12.18
2023-01-17T00:17:20.204Z,12.93
2023-01-17T00:20:24.815Z,12.75
2023-01-17T00:23:44.681Z,12.15
2023-01-17T00:26:31.974Z,10.25
2023-01-17T00:29:17.522Z,12.27
2023-01-17T00:32:02.790Z,11.43
2023-01-17T00:34:48.002Z,12.70
2023-01-17T00:37:33.444Z,13.63
2023-01-17T00:40:18.703Z,12.15
2023-01-17T00:43:23.798Z,11.90
2023-01-17T00:46:27.944Z,12.27
2023-01-17T00:49:31.902Z,11.63
2023-01-17T00:52:35.853Z,10.00
2023-01-17T00:55:39.903Z,11.32
2023-01-17T00:58:43.881Z,11.38
2023-01-17T01:01:48.142Z,10.75
2023-01-17T01:04:52.201Z,10.82
2023-01-17T01:07:56.288Z,11.45
2023-01-17T01:11:01.327Z,11.45
2023-01-17T01:14:05.687Z,11.18
2023-01-17T01:17:09.879Z,10.60
2023-01-17T01:20:13.895Z,10.23
2023-01-17T01:23:22.895Z,10.18
2023-01-17T01:26:26.880Z,10.95
2023-01-17T01:29:31.119Z,11.52
2023-01-17T01:32:35.056Z,11.85
2023-01-17T01:35:22.016Z,10.13
2023-01-17T01:38:07.656Z,9.00
2023-01-17T01:40:55.751Z,10.32
2023-01-17T01:43:44.424Z,9.15
2023-01-17T01:46:29.700Z,9.70
2023-01-17T01:49:21.986Z,10.35
2023-01-17T01:52:09.018Z,8.48
2023-01-17T01:55:03.345Z,10.18
2023-01-17T01:57:52.802Z,9.95
2023-01-17T02:00:41.072Z,9.75
2023-01-17T02:03:31.252Z,11.77
2023-01-17T02:06:19.368Z,10.90
2023-01-17T02:09:08.664Z,10.52
2023-01-17T02:11:54.734Z,9.90
2023-01-17T02:14:40.035Z,10.82
2023-01-17T02:17:30.065Z,10.75
2023-01-17T02:20:27.449Z,9.90
2023-01-17T02:23:22.216Z,9.85
2023-01-17T02:26:26.153Z,10.63
2023-01-17T02:29:30.358Z,8.70
2023-01-17T02:33:02.025Z,9.18
2023-01-17T02:36:04.626Z,8.20
2023-01-17T02:39:17.868Z,9.38
2023-01-17T02:42:09.886Z,9.98
2023-01-17T02:44:55.503Z,10.23
2023-01-17T02:47:40.921Z,10.05
2023-01-17T02:50:37.505Z,9.63
2023-01-17T02:53:38.386Z,8.73
2023-01-17T02:56:46.793Z,8.32
2023-01-17T03:00:01.742Z,9.07
2023-01-17T03:02:56.274Z,7.80
2023-01-17T03:05:49.764Z,7.80
2023-01-17T03:08:35.244Z,7.13
2023-01-17T03:11:20.953Z,7.35
2023-01-17T03:14:06.582Z,6.78
2023-01-17T03:16:53.079Z,6.25
2023-01-17T03:19:38.678Z,6.70
2023-01-17T03:22:24.218Z,6.68
2023-01-17T03:25:10.097Z,7.20
2023-01-17T03:27:55.752Z,9.38
2023-01-17T03:30:41.129Z,7.85
2023-01-17T03:33:26.402Z,8.23
2023-01-17T03:36:12.307Z,7.95
2023-01-17T03:38:57.781Z,8.20
2023-01-17T03:41:43.028Z,7.55
2023-01-17T03:44:28.561Z,7.40
2023-01-17T03:47:13.679Z,7.88
2023-01-17T03:49:59.162Z,7.30
2023-01-17T03:52:44.342Z,8.48
2023-01-17T03:55:29.902Z,8.07
2023-01-17T03:58:16.380Z,7.25
2023-01-17T04:01:02.125Z,6.25
2023-01-17T04:03:47.952Z,8.18
2023-01-17T04:06:33.278Z,8.00
2023-01-17T04:09:18.599Z,8.32
2023-01-17T04:12:04.104Z,8.70
2023-01-17T04:14:49.559Z,7.72
2023-01-17T04:17:35.593Z,8.05
2023-01-17T04:20:36.677Z,7.82
2023-01-17T04:23:22.269Z,8.25
2023-01-17T04:26:08.859Z,7.93
2023-01-17T04:28:54.561Z,8.02
2023-01-17T04:31:39.882Z,8.35
2023-01-17T04:34:25.672Z,7.97
2023-01-17T04:37:10.854Z,9.02
2023-01-17T04:39:56.512Z,9.20
2023-01-17T04:42:44.307Z,9.30
2023-01-17T04:45:29.775Z,8.80
2023-01-17T04:48:15.203Z,9.10
2023-01-17T04:51:02.197Z,9.43
2023-01-17T04:53:47.843Z,8.40
2023-01-17T04:56:33.057Z,8.52
2023-01-17T04:59:18.362Z,8.23
2023-01-17T05:02:03.904Z,9.32
2023-01-17T05:04:49.058Z,7.93
2023-01-17T05:07:35.820Z,7.00
2023-01-17T05:10:21.896Z,6.68
2023-01-17T05:13:07.328Z,7.75
2023-01-17T05:15:53.410Z,7.75
2023-01-17T05:18:39.180Z,6.72
2023-01-17T05:21:25.069Z,6.00
2023-01-17T05:24:10.930Z,7.57
2023-01-17T05:26:56.090Z,6.72
2023-01-17T05:29:41.764Z,7.43
2023-01-17T05:32:27.367Z,7.40
2023-01-17T05:35:12.793Z,6.03
2023-01-17T05:37:59.234Z,6.32
2023-01-17T05:40:44.515Z,7.43
2023-01-17T05:43:29.757Z,6.85
2023-01-17T05:46:16.316Z,6.93
2023-01-17T05:49:01.821Z,5.88
2023-01-17T05:51:47.203Z,5.13
2023-01-17T05:54:32.490Z,7.03
2023-01-17T05:57:17.974Z,6.47
2023-01-17T06:00:03.948Z,6.60
2023-01-17T06:02:50.541Z,8.20
2023-01-17T06:05:36.055Z,6.68
2023-01-17T06:08:23.542Z,6.88
2023-01-17T06:11:09.063Z,5.82
2023-01-17T06:13:54.574Z,5.70
2023-01-17T06:16:40.111Z,5.10
2023-01-17T06:19:25.827Z,6.05
2023-01-17T06:22:11.093Z,6.75
2023-01-17T06:24:56.447Z,6.03
2023-01-17T06:27:41.844Z,6.25
2023-01-17T06:30:27.359Z,6.57
2023-01-17T06:33:13.463Z,5.65
2023-01-17T06:35:59.054Z,5.93
2023-01-17T06:38:44.324Z,6.47
2023-01-17T06:41:29.654Z,6.28
2023-01-17T06:44:15.091Z,5.93
2023-01-17T06:47:00.559Z,6.88
2023-01-17T06:49:45.900Z,7.15
2023-01-17T06:52:31.265Z,8.25
2023-01-17T06:55:16.788Z,6.40
2023-01-17T06:58:05.525Z,5.95
2023-01-17T07:00:51.175Z,6.47
2023-01-17T07:03:37.931Z,5.78
2023-01-17T07:06:25.109Z,7.93
2023-01-17T07:09:10.824Z,6.15
2023-01-17T07:11:59.758Z,6.47
2023-01-17T07:14:45.445Z,6.18
2023-01-17T07:17:31.082Z,5.88
2023-01-17T07:20:16.765Z,7.38
2023-01-17T07:23:02.279Z,7.15
2023-01-17T07:26:14.174Z,7.00
2023-01-17T07:28:59.787Z,7.50
2023-01-17T07:31:45.344Z,6.68
2023-01-17T07:34:30.834Z,6.80
2023-01-17T07:37:16.364Z,6.78
2023-01-17T07:40:02.618Z,6.65
2023-01-17T07:42:48.423Z,6.95
2023-01-17T07:45:33.692Z,5.95
2023-01-17T07:48:20.755Z,5.20
2023-01-17T07:51:06.365Z,6.40
2023-01-17T07:53:51.800Z,6.90
2023-01-17T07:56:37.722Z,7.07
2023-01-17T07:59:23.070Z,6.78
2023-01-17T08:02:17.805Z,6.53
2023-01-17T08:05:03.129Z,5.63
2023-01-17T08:07:48.520Z,6.15
2023-01-17T08:10:34.024Z,5.80
2023-01-17T08:13:20.151Z,4.95
2023-01-17T08:16:06.378Z,6.50
2023-01-17T08:18:52.095Z,5.05
2023-01-17T08:21:37.770Z,6.57
2023-01-17T08:24:23.231Z,6.43
2023-01-17T08:27:09.248Z,5.57
2023-01-17T08:29:55.013Z,6.15
2023-01-17T08:32:40.984Z,6.15
2023-01-17T08:35:27.908Z,6.15
2023-01-17T08:38:13.254Z,5.43
2023-01-17T08:41:01.654Z,6.53
2023-01-17T08:43:48.334Z,6.90
2023-01-17T08:46:33.920Z,6.38
2023-01-17T08:49:19.280Z,6.47
2023-01-17T08:52:05.507Z,7.78
2023-01-17T08:54:53.293Z,6.72
2023-01-17T08:57:38.603Z,6.03
2023-01-17T09:00:24.150Z,7.40
2023-01-17T09:03:14.047Z,6.80
2023-01-17T09:06:03.811Z,6.43
2023-01-17T09:08:52.008Z,6.68
2023-01-17T09:11:37.782Z,7.10
2023-01-17T09:14:23.134Z,5.85
2023-01-17T09:17:08.365Z,5.97
2023-01-17T09:19:53.719Z,6.30
2023-01-17T09:22:39.205Z,6.97
2023-01-17T09:25:24.571Z,6.10
2023-01-17T09:28:11.095Z,7.47
2023-01-17T09:30:56.709Z,7.50
2023-01-17T09:33:43.311Z,7.05
2023-01-17T09:36:29.308Z,6.50
2023-01-17T09:39:15.425Z,7.85
2023-01-17T09:42:06.785Z,8.95
2023-01-17T09:44:52.777Z,8.10
2023-01-17T09:47:43.659Z,8.00
2023-01-17T09:50:47.217Z,6.60
2023-01-17T09:53:36.105Z,7.38
2023-01-17T09:56:31.349Z,8.88
2023-01-17T09:59:38.920Z,7.30
2023-01-17T10:03:03.599Z,8.85
2023-01-17T10:06:07.915Z,7.00
2023-01-17T10:08:59.885Z,7.32
2023-01-17T10:12:07.290Z,8.30
2023-01-17T10:15:10.887Z,6.65
2023-01-17T10:18:05.348Z,6.57
2023-01-17T10:21:13.310Z,7.43
2023-01-17T10:24:23.050Z,5.78
2023-01-17T10:27:28.337Z,6.18
2023-01-17T10:30:25.367Z,5.50
2023-01-17T10:33:51.768Z,6.95
2023-01-17T10:36:41.508Z,5.18
2023-01-17T10:39:31.004Z,7.10
2023-01-17T10:42:42.968Z,5.60
2023-01-17T10:45:30.356Z,6.40
2023-01-17T10:48:32.669Z,6.97
2023-01-17T10:51:50.826Z,6.53
2023-01-17T10:54:50.024Z,5.22
2023-01-17T10:57:47.497Z,7.05
2023-01-17T11:00:51.197Z,6.75
2023-01-17T11:03:36.570Z,6.97
2023-01-17T11:06:25.988Z,6.20
2023-01-17T11:09:12.029Z,5.53
2023-01-17T11:11:57.420Z,5.32
2023-01-17T11:15:01.343Z,6.70
2023-01-17T11:17:53.319Z,6.35
2023-01-17T11:20:40.185Z,5.30
2023-01-17T11:23:31.817Z,5.80
2023-01-17T11:26:27.681Z,6.55
2023-01-17T11:29:29.673Z,6.18
2023-01-17T11:32:33.260Z,4.85
2023-01-17T11:35:33.167Z,5.15
2023-01-17T11:38:22.370Z,5.80
2023-01-17T11:41:21.703Z,5.43
2023-01-17T11:44:26.082Z,5.60
2023-01-17T11:47:19.299Z,6.03
2023-01-17T11:50:24.027Z,5.88
2023-01-17T11:53:15.775Z,4.93
2023-01-17T11:56:11.470Z,5.28
2023-01-17T11:59:15.613Z,3.67
2023-01-17T12:02:31.971Z,5.25
2023-01-17T12:05:48.346Z,3.97
2023-01-17T12:09:12.686Z,4.32
2023-01-17T12:12:34.944Z,5.10
2023-01-17T12:18:54.022Z,4.25
2023-01-17T12:21:48.818Z,5.18
2023-01-17T12:24:58.973Z,4.05
2023-01-17T12:27:53.342Z,6.75
2023-01-17T12:31:08.142Z,4.30
2023-01-17T12:34:14.964Z,4.30
2023-01-17T12:37:18.270Z,5.82
2023-01-17T12:40:16.619Z,6.20
2023-01-17T12:43:25.660Z,5.22
2023-01-17T12:46:27.260Z,5.03
2023-01-17T12:49:45.936Z,4.00
2023-01-17T12:52:59.943Z,4.28
2023-01-17T12:55:59.596Z,4.40
2023-01-17T12:58:49.670Z,4.38
2023-01-17T13:01:43.337Z,4.13
2023-01-17T13:04:57.463Z,4.95
2023-01-17T13:08:07.795Z,4.55
2023-01-17T13:11:04.073Z,4.35
2023-01-17T13:13:51.581Z,6.15
2023-01-17T13:16:46.449Z,6.45
2023-01-17T13:19:55.636Z,5.30
2023-01-17T13:22:43.314Z,4.25
2023-01-17T13:25:44.740Z,4.53
2023-01-17T13:28:44.800Z,3.90
2023-01-17T13:31:57.815Z,4.13
2023-01-17T13:35:01.765Z,4.25
2023-01-17T13:38:08.571Z,3.97
2023-01-17T13:41:35.736Z,2.95
2023-01-17T13:44:27.314Z,3.08
2023-01-17T13:47:18.975Z,2.97
2023-01-17T13:50:06.835Z,3.05
2023-01-17T13:52:58.041Z,3.45
2023-01-17T13:55:53.456Z,2.75
2023-01-17T13:58:45.403Z,2.70
2023-01-17T14:01:38.922Z,2.78
2023-01-17T14:04:25.118Z,2.45
2023-01-17T14:07:25.690Z,2.72
2023-01-17T14:10:32.620Z,3.10
2023-01-17T14:13:37.769Z,2.40
2023-01-17T14:16:27.690Z,2.88
2023-01-17T14:19:26.741Z,2.10
2023-01-17T14:22:21.416Z,2.03
2023-01-17T14:25:15.037Z,1.60
2023-01-17T14:28:04.384Z,1.83
2023-01-17T14:30:56.005Z,1.63
2023-01-17T14:33:42.021Z,1.70
2023-01-17T14:36:32.599Z,1.52
2023-01-17T14:39:22.589Z,1.60
2023-01-17T14:42:15.464Z,1.60
2023-01-17T14:45:06.665Z,1.23
2023-01-17T14:47:52.912Z,2.25
2023-01-17T14:50:40.888Z,1.77
2023-01-17T14:53:31.593Z,1.83
2023-01-17T14:56:17.274Z,2.13
2023-01-17T14:59:17.076Z,1.60
2023-01-17T15:02:08.721Z,2.15
2023-01-17T15:04:55.301Z,1.63
2023-01-17T15:07:43.136Z,1.75
2023-01-17T15:10:32.756Z,2.53
2023-01-17T15:13:29.770Z,1.40
2023-01-17T15:16:30.104Z,1.40
2023-01-17T15:19:15.696Z,2.20
2023-01-17T15:22:01.081Z,1.88
2023-01-17T15:24:47.908Z,1.73
2023-01-17T15:27:33.688Z,1.48
2023-01-17T15:30:19.038Z,1.50
2023-01-17T15:33:05.004Z,1.48
2023-01-17T15:36:21.212Z,1.33
2023-01-17T15:39:18.008Z,1.27
2023-01-17T15:42:07.893Z,1.55
2023-01-17T15:45:00.908Z,1.42
2023-01-17T15:47:47.011Z,1.75
2023-01-17T15:50:36.534Z,2.50
2023-01-17T15:53:36.645Z,3.05
2023-01-17T15:56:33.550Z,5.03
2023-01-17T15:59:42.378Z,4.82
2023-01-17T16:02:33.225Z,3.83
2023-01-17T16:05:22.619Z,3.42
2023-01-17T16:08:08.308Z,3.80
2023-01-17T16:10:56.790Z,2.17
2023-01-17T16:13:43.534Z,1.42
2023-01-17T16:16:29.500Z,3.03
2023-01-17T16:19:15.520Z,4.10
2023-01-17T16:22:05.089Z,3.45
2023-01-17T16:24:50.838Z,4.55
2023-01-17T16:27:36.534Z,3.58
2023-01-17T16:30:22.429Z,2.83
2023-01-17T16:33:11.836Z,3.17
2023-01-17T16:35:56.959Z,4.15
2023-01-17T16:38:45.047Z,3.35
2023-01-17T16:41:30.524Z,3.85
2023-01-17T16:44:16.794Z,3.58
2023-01-17T16:47:02.201Z,2.75
2023-01-17T16:49:47.670Z,3.65
2023-01-17T16:52:33.263Z,3.80
2023-01-17T16:55:22.182Z,3.58
2023-01-17T16:58:07.899Z,2.78
2023-01-17T17:00:55.507Z,2.88
2023-01-17T17:03:41.914Z,4.13
2023-01-17T17:06:27.599Z,3.05
2023-01-17T17:09:12.856Z,2.58
2023-01-17T17:11:58.215Z,3.85
2023-01-17T17:14:43.550Z,3.75
2023-01-17T17:17:29.214Z,4.22
2023-01-17T17:20:15.693Z,4.18
2023-01-17T17:23:00.916Z,4.50
2023-01-17T17:25:54.695Z,4.82
2023-01-17T17:28:40.426Z,5.25
2023-01-17T17:31:25.822Z,4.68
2023-01-17T17:34:13.077Z,5.28
2023-01-17T17:36:58.426Z,4.78
2023-01-17T17:39:44.680Z,4.75
2023-01-17T17:42:30.172Z,5.05
2023-01-17T17:45:15.737Z,6.13
2023-01-17T17:48:01.215Z,5.55
2023-01-17T17:50:58.299Z,5.60
2023-01-17T17:53:45.291Z,5.82
2023-01-17T17:56:32.641Z,5.60
2023-01-17T17:59:19.586Z,7.63
2023-01-17T18:02:06.829Z,7.68
2023-01-17T18:04:52.591Z,6.55
2023-01-17T18:07:37.812Z,7.18
2023-01-17T18:10:23.257Z,6.18
2023-01-17T18:13:08.693Z,6.55
2023-01-17T18:16:08.905Z,6.78
2023-01-17T18:18:57.150Z,4.57
2023-01-17T18:21:43.622Z,5.82
2023-01-17T18:24:29.317Z,4.38
2023-01-17T18:27:15.379Z,3.50
2023-01-17T18:30:00.680Z,4.60
2023-01-17T18:32:49.935Z,4.70
2023-01-17T18:35:35.642Z,5.22
2023-01-17T18:38:20.987Z,4.63
2023-01-17T18:41:12.643Z,5.43
2023-01-17T18:43:59.085Z,5.40
2023-01-17T18:46:45.250Z,6.40
2023-01-17T18:49:32.701Z,6.65
2023-01-17T18:52:19.569Z,5.05
2023-01-17T18:55:05.794Z,5.05
2023-01-17T18:57:51.347Z,7.15
2023-01-17T19:00:36.856Z,5.10
2023-01-17T19:03:28.967Z,7.22
2023-01-17T19:06:18.645Z,6.28
2023-01-17T19:09:05.621Z,4.85
2023-01-17T19:11:51.412Z,5.70
2023-01-17T19:14:37.312Z,5.70
2023-01-17T19:17:22.506Z,9.40
2023-01-17T19:20:09.077Z,9.93
2023-01-17T19:22:54.445Z,7.07
2023-01-17T19:25:39.734Z,5.93
2023-01-17T19:28:25.222Z,6.07
2023-01-17T19:31:16.121Z,5.38
2023-01-17T19:34:01.328Z,5.10
2023-01-17T19:36:47.351Z,5.20
2023-01-17T19:39:33.327Z,3.15
2023-01-17T19:42:19.219Z,5.28
2023-01-17T19:45:05.029Z,6.00
2023-01-17T19:47:50.524Z,6.57
2023-01-17T19:50:35.902Z,6.18
2023-01-17T19:53:24.560Z,5.93
2023-01-17T19:56:18.877Z,5.05
2023-01-17T19:59:04.286Z,5.78
2023-01-17T20:01:50.041Z,6.03
2023-01-17T20:04:35.794Z,5.57
2023-01-17T20:07:21.166Z,4.78
2023-01-17T20:10:06.905Z,5.18
2023-01-17T20:12:52.654Z,6.05
2023-01-17T20:15:38.018Z,7.20
2023-01-17T20:18:23.350Z,6.55
2023-01-17T20:21:21.075Z,6.03
2023-01-17T20:24:09.962Z,6.43
2023-01-17T20:26:58.086Z,6.22
2023-01-17T20:29:43.984Z,5.82
2023-01-17T20:32:29.592Z,4.65
2023-01-17T20:35:16.091Z,5.30
2023-01-17T20:38:01.702Z,5.95
2023-01-17T20:40:54.049Z,3.80
2023-01-17T20:43:40.240Z,5.53
2023-01-17T20:46:29.018Z,4.60
2023-01-17T20:49:18.878Z,3.15
2023-01-17T20:52:06.199Z,5.35
2023-01-17T20:54:51.946Z,6.28
2023-01-17T20:57:37.565Z,5.45
2023-01-17T21:00:23.095Z,4.70
2023-01-17T21:03:08.582Z,3.92
2023-01-17T21:05:59.560Z,5.43
2023-01-17T21:08:46.305Z,5.20
2023-01-17T21:11:34.111Z,4.53
2023-01-17T21:14:21.833Z,4.55
2023-01-17T21:17:07.772Z,5.63
2023-01-17T21:19:53.425Z,5.00
2023-01-17T21:22:38.773Z,4.20
2023-01-17T21:25:24.052Z,4.95
2023-01-17T21:28:09.438Z,5.50
2023-01-17T21:30:55.991Z,5.28
2023-01-17T21:33:41.434Z,5.20
2023-01-17T21:36:33.183Z,7.35
2023-01-17T21:39:19.185Z,3.00
2023-01-17T21:42:04.898Z,4.45
2023-01-17T21:44:50.378Z,4.15
2023-01-17T21:47:35.772Z,4.35
2023-01-17T21:50:32.723Z,3.65
2023-01-17T21:53:18.745Z,3.47
2023-01-17T21:56:25.199Z,2.70
2023-01-17T21:59:10.910Z,4.45
2023-01-17T22:01:56.336Z,3.55
2023-01-17T22:04:42.080Z,1.67
2023-01-17T22:07:29.140Z,2.28
2023-01-17T22:10:14.489Z,2.88
2023-01-17T22:13:00.024Z,2.85
2023-01-17T22:15:46.315Z,2.95
2023-01-17T22:18:34.140Z,2.63
2023-01-17T22:21:22.062Z,3.10
2023-01-17T22:24:07.815Z,3.53
2023-01-17T22:26:53.167Z,3.63
2023-01-17T22:29:38.773Z,4.53
2023-01-17T22:32:24.171Z,2.63
2023-01-17T22:35:09.895Z,2.38
2023-01-17T22:37:55.355Z,2.42
2023-01-17T22:40:40.950Z,3.03
2023-01-17T22:43:27.340Z,2.88
2023-01-17T22:46:15.130Z,2.75
2023-01-17T22:49:00.709Z,2.80
2023-01-17T22:51:46.286Z,2.60
2023-01-17T22:54:31.744Z,3.00
2023-01-17T22:57:17.888Z,2.35
2023-01-17T23:00:14.576Z,3.45
2023-01-17T23:03:00.607Z,3.40
2023-01-17T23:05:46.868Z,3.45
2023-01-17T23:08:32.557Z,2.83
2023-01-17T23:11:49.941Z,3.13
2023-01-17T23:14:55.096Z,2.80
2023-01-17T23:17:59.055Z,3.17
2023-01-17T23:20:44.761Z,2.67
2023-01-17T23:23:31.207Z,3.72
2023-01-17T23:26:17.013Z,2.75
2023-01-17T23:29:02.583Z,3.22
2023-01-17T23:31:47.951Z,2.75
2023-01-17T23:34:33.381Z,2.90
2023-01-17T23:37:18.736Z,3.08
2023-01-17T23:40:04.706Z,2.80
2023-01-17T23:43:08.721Z,2.42
2023-01-17T23:45:54.882Z,1.98
2023-01-17T23:48:40.130Z,2.42
2023-01-17T23:51:25.385Z,2.05
2023-01-17T23:54:10.831Z,2.33
2023-01-17T23:56:56.241Z,1.50
2023-01-17T23:59:41.460Z,1.42
